• Join FlightAware (Why Join?)
  • Login
  • US Flag 
02:22PM EDT


 

Airport Tracker/Info


-or-


 

Live Flight TrackerFlight Track Log ✈ VRD251 ✈ 26-Apr-2012 ✈ KLAS - KSFO

Flight Track Log - Related Links

Times and Time Zones

All times are in EDT time to prevent confusion due to time zone crossing. See the VRD251 flight status page for this flight to view local times or setup timezone preferences in your user account.

Time Position Orientation Groundspeed Altitude Reporting Facility
EDT Latitude Longitude Course Direction KTS MPH feet Rate Location/Type
04:35PM 36.0706 -115.1758 201° Southwest 155 178 3,500  Level Los Angeles Center
04:36PM 36.0436 -115.1889 227° Southwest 186 214 4,400 1,920 Climbing Los Angeles Center
04:37PM 35.9919 -115.2564 235° Southwest 256 295 6,900 1,500 Climbing Los Angeles Center
04:38PM 35.9508 -115.3286 223° Southwest 259 298 7,600 1,440 Climbing Los Angeles Center
04:38PM 35.9239 -115.3597 234° Southwest 280 322 9,200 2,160 Climbing Los Angeles Center
04:39PM 35.8825 -115.4292 273° West 296 341 11,000 900 Climbing Los Angeles Center
04:40PM 35.8872 -115.5342 272° West 282 325 11,100 900 Climbing Los Angeles Center
04:41PM 35.8897 -115.6419 272° West 312 359 12,900 2,580 Climbing Los Angeles Center
04:42PM 35.8922 -115.7597 270° West 317 365 16,300 2,940 Climbing Los Angeles Center
04:43PM 35.8925 -115.8597 279° West 322 371 18,800 2,400 Climbing Los Angeles Center
04:44PM 35.9094 -115.9853 316° Northwest 334 384 21,100 2,220 Climbing Los Angeles Center
04:45PM 35.9719 -116.0597 316° Northwest 330 380 23,300 2,100 Climbing Los Angeles Center
04:46PM 36.0472 -116.1494 318° Northwest 342 394 25,300 1,800 Climbing Los Angeles Center
04:47PM 36.1222 -116.2319 317° Northwest 353 406 26,900 1,500 Climbing Los Angeles Center
04:48PM 36.1992 -116.3219 317° Northwest 364 419 28,300 1,440 Climbing Los Angeles Center
04:49PM 36.2783 -116.4125 317° Northwest 376 433 29,800 1,500 Climbing Los Angeles Center
04:50PM 36.3575 -116.5056 316° Northwest 376 433 31,300 1,200 Climbing Los Angeles Center
04:51PM 36.4342 -116.5961 317° Northwest 382 440 32,300 1,260 Climbing Los Angeles Center
04:52PM 36.5153 -116.6897 319° Northwest 387 445 33,900 1,440 Climbing Los Angeles Center
04:53PM 36.6003 -116.7808 329° Northwest 392 451 35,200 1,020 Climbing Los Angeles Center
04:54PM 36.6936 -116.8517 328° Northwest 392 451 36,000 720 Climbing Los Angeles Center
04:56PM 36.8669 -116.9861 321° Northwest 382 440 37,400 600 Climbing Oakland Center
04:57PM 36.9511 -117.0725 285° West 387 445 37,700 300 Climbing Oakland Center
04:58PM 36.9783 -117.2039 284° West 374 430 38,000 120 Climbing Oakland Center
04:59PM 37.0033 -117.3325 283° West 374 430 38,000  Level Oakland Center
05:00PM 37.0281 -117.4642 283° West 380 437 38,000  Level Oakland Center
05:01PM 37.0528 -117.5956 283° West 390 449 38,000  Level Oakland Center
05:02PM 37.0775 -117.7272 283° West 398 458 38,000  Level Oakland Center
05:03PM 37.1022 -117.8669 284° West 398 458 38,000  Level Oakland Center
05:04PM 37.1308 -118.0089 282° West 410 472 38,000  Level Oakland Center
05:05PM 37.1528 -118.1383 283° West 410 472 38,000  Level Oakland Center
05:06PM 37.1769 -118.2731 284° West 405 466 38,000  Level Oakland Center
05:07PM 37.2028 -118.4078 282° West 405 466 38,000 -60 Level Oakland Center
05:08PM 37.2267 -118.5531 284° West 405 466 37,900  Descending Oakland Center
05:09PM 37.2525 -118.6878 283° West 394 453 38,000 -720 Climbing Oakland Center
05:10PM 37.2758 -118.8203 280° West 394 453 36,500 -1,860 Descending Oakland Center
05:11PM 37.2925 -118.9397 284° West 378 435 34,300 -1,320 Descending Oakland Center
05:12PM 37.3178 -119.0697 281° West 372 428 33,900 -180 Descending Oakland Center
05:13PM 37.3364 -119.1894 283° West 366 421 34,000  Climbing Oakland Center
05:14PM 37.3589 -119.3092 281° West 361 415 34,000  Level Oakland Center
05:15PM 37.3772 -119.4289 280° West 355 409 34,000  Level Oakland Center
05:16PM 37.3956 -119.5567 282° West 346 398 34,000  Level Oakland Center
05:17PM 37.4156 -119.6764 285° West 351 404 34,000 -300 Level Oakland Center
05:18PM 37.4397 -119.7886 282° West 351 404 33,400 -900 Descending Oakland Center
05:19PM 37.4597 -119.9061 281° West 346 398 32,300 -1,080 Descending Oakland Center
05:20PM 37.4775 -120.0261 282° West 346 398 31,300 -960 Descending Oakland Center
05:21PM 37.4972 -120.1436 282° West 351 404 30,400 -1,020 Descending Oakland Center
05:22PM 37.5167 -120.2614 282° West 351 404 29,300 -1,020 Descending Oakland Center
05:23PM 37.5339 -120.3658 281° West 340 391 28,400 -960 Descending Oakland Center
05:24PM 37.5489 -120.4681 283° West 313 360 27,400 -1,020 Descending Oakland Center
05:25PM 37.5661 -120.5647 280° West 303 349 26,400 -900 Descending Oakland Center
05:26PM 37.5767 -120.6433 280° West 292 336 25,600 -1,200 Descending Oakland Center
05:27PM 37.5917 -120.7481 282° West 292 336 24,100 -1,560 Descending Oakland Center
05:28PM 37.6083 -120.8450 281° West 282 325 22,500 -1,560 Descending Oakland Center
05:29PM 37.6231 -120.9447 264° West 282 325 21,000 -1,500 Descending Oakland Center
05:30PM 37.6147 -121.0392 262° West 277 319 19,500 -1,500 Descending Oakland Center
05:31PM 37.6042 -121.1333 264° West 277 319 18,000 -1,620 Descending Oakland Center
05:32PM 37.5958 -121.2303 264° West 277 319 16,300 -1,620 Descending Oakland Center
05:34PM 37.5833 -121.3833 256° West 275 316 14,200 -1,500 Descending Northern Cal TRACON
05:35PM 37.5667 -121.4667 256° West 263 303 12,800 -1,200 Descending Northern Cal TRACON
05:36PM 37.5500 -121.5500 256° West 269 310 11,800 -960 Descending Northern Cal TRACON
05:37PM 37.5333 -121.6333 256° West 257 296 11,000 -960 Descending Northern Cal TRACON
05:38PM 37.5167 -121.7167 258° West 252 290 10,000 -840 Descending Northern Cal TRACON
05:39PM 37.5000 -121.8167 253° West 236 272 9,300 -960 Descending Northern Cal TRACON
05:40PM 37.4833 -121.8833 284° West 232 267 8,100 -1,200 Descending Northern Cal TRACON
05:41PM 37.5000 -121.9667 288° West 239 275 7,000 -1,440 Descending Northern Cal TRACON
05:42PM 37.5167 -122.0333 297° West 224 258 5,400 -1,800 Descending Northern Cal TRACON
05:43PM 37.5500 -122.1167 288° West 207 238 3,300 -1,500 Descending Northern Cal TRACON
05:44PM 37.5667 -122.1833 293° West 176 203 2,300 -780 Descending Northern Cal TRACON
05:45PM 37.5833 -122.2333 270° West 170 196 1,900 -540 Descending Northern Cal TRACON
05:46PM 37.5833 -122.2833 302° West 138 159 1,300 -600 Descending Northern Cal TRACON
05:47PM 37.6000 -122.3167 302° West 120 138 800 -540 Descending Northern Cal TRACON